Αναφορές Αεροδρομίων

 

KSJC - San Jose, California, USA
Distance from station: ΒΑ 14km
Ενημερώθηκε: 24/01/2021 09:53
Αίθριος
Αίθριος
 Ανεμος από Ν
Ανεμος: Ν 6 km/h
Θερμοκρασία: 6°C
Σημείο Δρόσου: 3°C
Υγρασία: 81%
Βαρόμετρο: 1014.6 hPa
Clouds: Αίθριος
Visibility: 16 km
2021/01/24 07:53 KSJC 240753Z 17003KT 10SM CLR 06/03 A2996 RMK AO2 SLP146 LAST T00560033 401330044
KNUQ - Moffett Nas/Mtn, California, USA
Distance from station: Β 14km
Ενημερώθηκε: 24/01/2021 10:10
Αίθριος
Αίθριος
 Ανεμος από calm
Ανεμος: Απνοια
Θερμοκρασία: 6°C
Σημείο Δρόσου: 4°C
Υγρασία: 87%
Βαρόμετρο: 1014.6 hPa
Clouds: Αίθριος
Visibility: 16 km
2021/01/24 08:10 KNUQ 240810Z AUTO 00000KT 10SM CLR 06/04 A2996 RMK AO2
 
KPAO - Palo Alto, California, USA
Distance from station: ΒΒΔ 23km
Ενημερώθηκε: 24/01/2021 06:47
NOT Current
Αίθριος
Αίθριος
 Ανεμος από ΝΝΑ
Ανεμος: ΝΝΑ 6 km/h
Θερμοκρασία: 7°C
Σημείο Δρόσου: 4°C
Υγρασία: 81%
Βαρόμετρο: 1014.9 hPa
Clouds: Αίθριος
Visibility: 16 km
2021/01/24 04:47 KPAO 240447Z 16003KT 10SM SKC 07/04 A2997 RMK LAST
KRHV - San Jose/Reid, California, USA
Distance from station: ΑΒΑ 19km
Ενημερώθηκε: 24/01/2021 07:50
NOT Current
Αίθριος
Αίθριος
 Ανεμος από calm
Ανεμος: Απνοια
Θερμοκρασία: 6°C
Σημείο Δρόσου: 3°C
Υγρασία: 81%
Βαρόμετρο: 1015.2 hPa
Clouds: Αίθριος
Visibility: 16 km
2021/01/24 05:50 KRHV 240550Z 00000KT 10SM SKC 06/03 A2998 RMK LAST
 
KOAK - Oakland, California, USA
Distance from station: ΒΒΔ 50km
Ενημερώθηκε: 24/01/2021 09:53
Αίθριος
Αίθριος
 Ανεμος από Α
Ανεμος: Α 7 km/h
Θερμοκρασία: 7°C
Wind Chill: 6°C
Σημείο Δρόσου: 4°C
Υγρασία: 81%
Βαρόμετρο: 1015.2 hPa
Clouds: Αίθριος
Visibility: 16 km
2021/01/24 07:53 KOAK 240753Z 10004KT 10SM CLR 07/04 A2998 RMK AO2 SLP149 T00670039 401500067
KSQL - San Carlos Airpo, California, USA
Distance from station: ΒΔ 34km
Ενημερώθηκε: 24/01/2021 10:15
Αίθριος
Αίθριος
 
Θερμοκρασία: 6°C
Σημείο Δρόσου: 4°C
Υγρασία: 87%
Βαρόμετρο: 1014.9 hPa
Clouds: Αίθριος
Visibility: 16 km
2021/01/24 08:15 KSQL 240815Z AUTO 10SM CLR 06/04 A2997 RMK AO2
 
KSFO - San Francisco, California, USA
Distance from station: ΒΔ 49km
Ενημερώθηκε: 24/01/2021 09:56
Αίθριος
Αίθριος
 Ανεμος από calm
Ανεμος: Απνοια
Θερμοκρασία: 9°C
Σημείο Δρόσου: 6°C
Υγρασία: 82%
Βαρόμετρο: 1014.2 hPa
Clouds: Αίθριος
Visibility: 16 km
2021/01/24 07:56 KSFO 240756Z 00000KT 10SM CLR 09/06 A2995 RMK AO2 SLP142 T00940061 401390078 $
KE16 - San Martin, California, USA
Distance from station: ΑΝΑ 43km
Ενημερώθηκε: 24/01/2021 10:15
Few Clouds
Few Clouds
 Ανεμος από calm
Ανεμος: Απνοια
Θερμοκρασία: 2°C
Σημείο Δρόσου: 2°C
Υγρασία: 100%
Βαρόμετρο: 1015.6 hPa
Clouds: Few Clouds
Visibility: 16 km
Cloud details: Few Clouds 579 m
2021/01/24 08:15 KE16 240815Z AUTO 00000KT 10SM FEW019 02/02 A2999 RMK AO2
 
KWVI - Watsonville, California, USA
Distance from station: ΝΝΑ 44km
Ενημερώθηκε: 24/01/2021 09:53
Αίθριος
Αίθριος
 Ανεμος από Β
Ανεμος: Β 7 km/h
Θερμοκρασία: 4°C
Wind Chill: 2°C
Σημείο Δρόσου: 3°C
Υγρασία: 93%
Βαρόμετρο: 1015.2 hPa
Clouds: Αίθριος
Visibility: 16 km
2021/01/24 07:53 KWVI 240753Z AUTO 35004KT 10SM CLR 04/03 A2998 RMK AO2 SLP154 T00440028 401390028
KHAF - Half Moon Bay, California, USA
Distance from station: ΔΒΔ 50km
Ενημερώθηκε: 24/01/2021 10:15
Συννεφιά
Συννεφιά
 Ανεμος από calm
Ανεμος: Απνοια
Θερμοκρασία: 7°C
Σημείο Δρόσου: 5°C
Υγρασία: 87%
Βαρόμετρο: 1014.9 hPa
Clouds: Συννεφιά
Visibility: 11 km
Cloud details: Συννεφιά 396 m
2021/01/24 08:15 KHAF 240815Z AUTO 00000KT 7SM OVC013 07/05 A2997 RMK AO2
 
KHWD - Hayward, California, USA
Distance from station: Β 44km
Ενημερώθηκε: 24/01/2021 09:54
Αίθριος
Αίθριος
 Ανεμος από ΑΒΑ
Ανεμος: ΑΒΑ 7 km/h
Θερμοκρασία: 6°C
Wind Chill: 4°C
Σημείο Δρόσου: 3°C
Υγρασία: 81%
Βαρόμετρο: 1014.6 hPa
Clouds: Αίθριος
Visibility: 16 km
2021/01/24 07:54 KHWD 240754Z AUTO 07004KT 10SM CLR 06/03 A2996 RMK AO2 SLP155 T00560033 401390056
KLVK - Livermore, California, USA
Distance from station: ΒΒΑ 51km
Ενημερώθηκε: 24/01/2021 09:53
Αίθριος
Αίθριος
 Ανεμος από calm
Ανεμος: Απνοια
Θερμοκρασία: 3°C
Σημείο Δρόσου: 2°C
Υγρασία: 93%
Βαρόμετρο: 1014.2 hPa
Clouds: Αίθριος
Visibility: 16 km
2021/01/24 07:53 KLVK 240753Z AUTO 00000KT 10SM CLR 03/02 A2995 RMK AO2 SLP141 T00330022 401390028